createdAt,value
2023-06-04T00:02:16.572Z,100984.19
2023-06-04T00:04:43.649Z,100986.97
2023-06-04T00:07:12.949Z,100982.31
2023-06-04T00:09:40.241Z,100987.06
2023-06-04T00:12:07.928Z,100980.53
2023-06-04T00:14:35.039Z,100987.13
2023-06-04T00:17:01.911Z,100987.66
2023-06-04T00:19:28.568Z,100986.84
2023-06-04T00:21:55.716Z,100984.72
2023-06-04T00:24:23.793Z,100983.75
2023-06-04T00:26:50.831Z,100976.91
2023-06-04T00:29:17.500Z,100977.63
2023-06-04T00:31:44.228Z,100979.25
2023-06-04T00:34:11.817Z,100976.22
2023-06-04T00:36:41.216Z,100975.25
2023-06-04T00:39:08.886Z,100976.75
2023-06-04T00:41:35.462Z,100978.88
2023-06-04T00:44:02.751Z,100978.56
2023-06-04T00:58:18.518Z,100980.94
2023-06-04T01:00:46.112Z,100981.06
2023-06-04T01:03:18.331Z,100983.31
2023-06-04T01:06:00.941Z,100982.84
2023-06-04T01:08:28.400Z,100983.00
2023-06-04T01:10:56.656Z,100995.06
2023-06-04T01:13:23.905Z,100996.19
2023-06-04T01:15:50.471Z,100996.41
2023-06-04T01:18:28.935Z,100997.28
2023-06-04T01:21:00.636Z,100996.75
2023-06-04T01:23:34.749Z,101004.50
2023-06-04T01:26:05.580Z,100992.22
2023-06-04T01:28:35.199Z,100995.09
2023-06-04T01:31:03.049Z,100996.59
2023-06-04T01:33:30.066Z,100993.03
2023-06-04T01:35:59.195Z,100991.72
2023-06-04T01:38:26.071Z,100989.22
2023-06-04T01:40:57.078Z,100989.66
2023-06-04T01:43:24.153Z,100988.63
2023-06-04T01:45:50.824Z,100980.56
2023-06-04T01:48:17.685Z,100986.13
2023-06-04T01:50:44.326Z,100988.03
2023-06-04T01:53:11.661Z,100981.84
2023-06-04T01:55:38.910Z,100981.13
2023-06-04T01:58:06.012Z,100986.06
2023-06-04T02:00:32.536Z,100986.06
2023-06-04T02:03:00.532Z,100997.16
2023-06-04T02:05:27.720Z,100991.63
2023-06-04T02:07:54.398Z,100992.03
2023-06-04T02:10:21.556Z,100997.06
2023-06-04T02:13:05.977Z,100996.03
2023-06-04T02:15:33.258Z,101001.09
2023-06-04T02:18:17.425Z,101001.78
2023-06-04T02:20:46.020Z,101003.97
2023-06-04T02:23:14.275Z,101011.94
2023-06-04T02:25:41.165Z,101010.06
2023-06-04T02:28:09.070Z,101006.59
2023-06-04T02:30:35.615Z,101010.06
2023-06-04T02:33:02.335Z,101014.84
2023-06-04T02:35:30.058Z,101017.09
2023-06-04T02:38:00.267Z,101011.63
2023-06-04T02:40:27.169Z,101012.44
2023-06-04T02:42:54.317Z,101009.91
2023-06-04T02:45:22.296Z,101005.56
2023-06-04T02:47:49.004Z,101005.78
2023-06-04T02:50:16.761Z,101005.56
2023-06-04T02:52:45.304Z,101016.19
2023-06-04T02:55:15.798Z,101016.19
2023-06-04T02:57:44.145Z,101022.56
2023-06-04T03:00:13.272Z,101016.34
2023-06-04T03:02:45.088Z,101020.50
2023-06-04T03:05:14.112Z,101021.75
2023-06-04T03:07:44.373Z,101019.13
2023-06-04T03:10:12.784Z,101032.00
2023-06-04T03:12:40.816Z,101020.50
2023-06-04T03:15:08.000Z,101025.47
2023-06-04T03:17:34.604Z,101018.69
2023-06-04T03:20:02.349Z,101021.63
2023-06-04T03:22:29.330Z,101027.41
2023-06-04T03:24:56.122Z,101031.16
2023-06-04T03:27:23.207Z,101033.75
2023-06-04T03:29:49.765Z,101041.16
2023-06-04T03:32:17.126Z,101038.03
2023-06-04T03:34:44.779Z,101035.22
2023-06-04T03:37:11.417Z,101041.13
2023-06-04T03:39:38.368Z,101034.66
2023-06-04T03:42:05.859Z,101032.06
2023-06-04T03:44:32.418Z,101036.31
2023-06-04T03:46:59.259Z,101039.50
2023-06-04T03:49:26.018Z,101026.97
2023-06-04T03:51:53.028Z,101025.31
2023-06-04T03:54:20.253Z,101018.72
2023-06-04T03:56:47.826Z,101026.81
2023-06-04T03:59:14.884Z,101033.69
2023-06-04T04:01:42.702Z,101034.84
2023-06-04T04:04:09.687Z,101031.50
2023-06-04T04:06:36.436Z,101029.44
2023-06-04T04:09:04.982Z,101037.91
2023-06-04T04:11:31.682Z,101034.81
2023-06-04T04:13:59.073Z,101030.44
2023-06-04T04:16:26.429Z,101035.47
2023-06-04T04:18:53.251Z,101036.00
2023-06-04T04:21:19.896Z,101033.41
2023-06-04T04:23:46.902Z,101031.78
2023-06-04T04:26:18.050Z,101029.16
2023-06-04T04:28:45.043Z,101031.59
2023-06-04T04:31:11.886Z,101041.78
2023-06-04T04:33:40.620Z,101039.34
2023-06-04T04:36:13.699Z,101034.84
2023-06-04T04:38:41.043Z,101027.38
2023-06-04T04:41:08.633Z,101027.75
2023-06-04T04:43:37.222Z,101035.50
2023-06-04T04:46:04.241Z,101037.50
2023-06-04T04:48:31.089Z,101038.19
2023-06-04T04:50:58.398Z,101027.41
2023-06-04T04:53:25.042Z,101031.94
2023-06-04T04:55:51.619Z,101036.34
2023-06-04T04:58:18.754Z,101046.94
2023-06-04T05:00:45.189Z,101038.63
2023-06-04T05:03:12.014Z,101038.03
2023-06-04T05:05:38.627Z,101040.34
2023-06-04T05:08:05.638Z,101041.78
2023-06-04T05:10:32.420Z,101038.41
2023-06-04T05:13:00.789Z,101034.72
2023-06-04T05:15:27.791Z,101042.63
2023-06-04T05:17:54.632Z,101047.56
2023-06-04T05:20:21.962Z,101054.56
2023-06-04T05:22:48.653Z,101049.97
2023-06-04T05:25:15.827Z,101051.59
2023-06-04T05:27:42.704Z,101045.13
2023-06-04T05:30:10.258Z,101058.06
2023-06-04T05:32:41.533Z,101063.38
2023-06-04T05:35:09.077Z,101056.56
2023-06-04T05:37:39.021Z,101055.25
2023-06-04T05:40:07.194Z,101056.41
2023-06-04T05:42:34.184Z,101058.38
2023-06-04T05:45:00.930Z,101057.41
2023-06-04T05:47:30.097Z,101059.38
2023-06-04T05:49:57.195Z,101061.78
2023-06-04T05:52:24.203Z,101064.47
2023-06-04T05:54:51.029Z,101065.34
2023-06-04T05:57:17.684Z,101069.00
2023-06-04T05:59:44.225Z,101071.72
2023-06-04T06:02:10.798Z,101073.94
2023-06-04T06:04:37.564Z,101070.31
2023-06-04T06:07:04.889Z,101069.72
2023-06-04T06:09:31.473Z,101082.03
2023-06-04T06:11:59.197Z,101079.13
2023-06-04T06:14:26.439Z,101078.84
2023-06-04T06:16:55.019Z,101082.84
2023-06-04T06:19:24.134Z,101080.50
2023-06-04T06:21:50.612Z,101072.44
2023-06-04T06:24:17.711Z,101085.47
2023-06-04T06:26:45.358Z,101086.81
2023-06-04T06:29:11.963Z,101093.28
2023-06-04T06:31:39.004Z,101094.72
2023-06-04T06:34:06.494Z,101093.31
2023-06-04T06:36:33.853Z,101093.44
2023-06-04T06:39:00.678Z,101097.53
2023-06-04T06:41:27.907Z,101096.34
2023-06-04T06:43:54.434Z,101098.78
2023-06-04T06:46:21.228Z,101097.97
2023-06-04T06:48:49.174Z,101093.75
2023-06-04T06:51:16.074Z,101099.34
2023-06-04T06:53:43.108Z,101093.78
2023-06-04T06:56:09.840Z,101090.31
2023-06-04T06:58:36.606Z,101095.69
2023-06-04T07:01:03.084Z,101096.19
2023-06-04T07:03:29.854Z,101093.06
2023-06-04T07:05:56.432Z,101089.56
2023-06-04T07:08:23.390Z,101091.28
2023-06-04T07:10:50.077Z,101091.56
2023-06-04T07:13:17.229Z,101085.19
2023-06-04T07:15:44.107Z,101092.25
2023-06-04T07:18:10.972Z,101084.56
2023-06-04T07:20:37.571Z,101089.78
2023-06-04T07:23:04.593Z,101097.31
2023-06-04T07:25:31.644Z,101090.19
2023-06-04T07:28:04.849Z,101080.13
2023-06-04T07:30:35.214Z,101086.56
2023-06-04T07:33:01.857Z,101085.69
2023-06-04T07:35:28.680Z,101088.84
2023-06-04T07:37:55.755Z,101088.66
2023-06-04T07:40:22.663Z,101085.41
2023-06-04T07:42:49.530Z,101094.25
2023-06-04T07:45:16.686Z,101083.81
2023-06-04T07:47:44.458Z,101082.16
2023-06-04T07:50:11.641Z,101084.66
2023-06-04T07:52:38.136Z,101088.81
2023-06-04T07:55:06.047Z,101083.72
2023-06-04T07:57:33.144Z,101087.22
2023-06-04T08:00:00.381Z,101092.09
2023-06-04T08:02:27.669Z,101088.88
2023-06-04T08:04:54.541Z,101090.97
2023-06-04T08:07:21.010Z,101080.91
2023-06-04T08:09:47.576Z,101096.59
2023-06-04T08:12:14.483Z,101087.38
2023-06-04T08:14:41.162Z,101088.19
2023-06-04T08:17:07.793Z,101079.75
2023-06-04T08:19:34.406Z,101079.22
2023-06-04T08:22:01.288Z,101082.31
2023-06-04T08:24:27.735Z,101080.78
2023-06-04T08:26:54.227Z,101078.47
2023-06-04T08:29:20.735Z,101085.72
2023-06-04T08:31:47.676Z,101086.53
2023-06-04T08:34:15.727Z,101083.28
2023-06-04T08:36:42.414Z,101074.41
2023-06-04T08:39:09.186Z,101080.00
2023-06-04T08:41:44.278Z,101079.56
2023-06-04T08:44:11.745Z,101086.31
2023-06-04T08:46:41.950Z,101082.69
2023-06-04T08:49:09.831Z,101072.56
2023-06-04T08:51:41.744Z,101068.63
2023-06-04T08:54:10.097Z,101074.25
2023-06-04T08:56:37.229Z,101074.00
2023-06-04T08:59:07.115Z,101064.34
2023-06-04T09:01:35.373Z,101070.81
2023-06-04T09:04:06.298Z,101066.31
2023-06-04T09:06:34.244Z,101063.38
2023-06-04T09:09:08.345Z,101065.63
2023-06-04T09:11:38.675Z,101057.03
2023-06-04T09:14:09.438Z,101064.84
2023-06-04T09:16:45.859Z,101060.88
2023-06-04T09:19:13.253Z,101059.31
2023-06-04T09:22:00.264Z,101051.34
2023-06-04T09:24:41.435Z,101052.53
2023-06-04T09:27:15.556Z,101050.09
2023-06-04T09:29:53.316Z,101055.28
2023-06-04T09:32:31.627Z,101052.97
2023-06-04T09:35:13.774Z,101049.31
2023-06-04T09:37:41.626Z,101050.72
2023-06-04T09:40:09.672Z,101056.03
2023-06-04T09:42:47.506Z,101048.28
2023-06-04T09:45:14.008Z,101052.44
2023-06-04T09:47:44.944Z,101044.72
2023-06-04T09:50:12.713Z,101037.00
2023-06-04T09:52:40.978Z,101045.47
2023-06-04T09:55:21.197Z,101035.13
2023-06-04T09:57:49.683Z,101040.25
2023-06-04T10:00:23.998Z,101011.22
2023-06-04T10:02:57.693Z,101043.53
2023-06-04T10:05:27.452Z,101040.75
2023-06-04T10:07:58.087Z,101033.41
2023-06-04T10:10:27.634Z,101036.28
2023-06-04T10:13:02.402Z,101036.91
2023-06-04T10:15:30.075Z,101032.09
2023-06-04T10:17:57.966Z,101025.25
2023-06-04T10:20:25.275Z,101026.72
2023-06-04T10:22:52.489Z,101014.38
2023-06-04T10:25:21.412Z,101022.25
2023-06-04T10:27:51.512Z,101018.53
2023-06-04T10:30:18.537Z,101017.69
2023-06-04T10:32:46.042Z,101010.63
2023-06-04T10:35:13.098Z,101024.66
2023-06-04T10:37:40.395Z,101015.34
2023-06-04T10:40:07.900Z,101011.44
2023-06-04T10:42:40.489Z,101012.84
2023-06-04T10:45:08.918Z,101019.88
2023-06-04T10:47:38.608Z,101002.91
2023-06-04T10:50:12.688Z,101025.88
2023-06-04T10:52:52.388Z,101020.97
2023-06-04T10:55:19.937Z,101023.34
2023-06-04T10:58:04.893Z,101021.19
2023-06-04T11:00:41.596Z,101031.97
2023-06-04T11:03:10.711Z,101032.28
2023-06-04T11:05:48.398Z,101031.28
2023-06-04T11:08:27.057Z,101025.63
2023-06-04T11:10:53.635Z,101019.94
2023-06-04T11:13:25.869Z,101022.78
2023-06-04T11:15:52.715Z,101007.41
2023-06-04T11:18:21.709Z,101013.59
2023-06-04T11:21:00.495Z,101003.84
2023-06-04T11:23:27.260Z,101001.84
2023-06-04T11:25:54.209Z,101005.34
2023-06-04T11:28:22.856Z,101008.31
2023-06-04T11:31:04.210Z,101013.63
2023-06-04T11:33:31.294Z,101000.41
2023-06-04T11:35:57.804Z,101003.44
2023-06-04T11:38:25.160Z,100997.78
2023-06-04T11:41:03.146Z,101003.03
2023-06-04T11:43:30.299Z,101005.31
2023-06-04T11:45:57.456Z,101006.44
2023-06-04T11:48:24.551Z,101007.84
2023-06-04T11:50:51.491Z,101010.34
2023-06-04T11:53:18.471Z,101006.50
2023-06-04T11:55:45.564Z,101002.47
2023-06-04T11:58:12.573Z,101012.94
2023-06-04T12:00:40.294Z,101002.47
2023-06-04T12:03:07.544Z,101007.03
2023-06-04T12:05:35.316Z,101002.56
2023-06-04T12:08:10.917Z,100995.19
2023-06-04T12:10:42.281Z,100990.97
2023-06-04T12:13:09.527Z,101001.94
2023-06-04T12:15:36.711Z,100989.41
2023-06-04T12:18:06.506Z,100996.13
2023-06-04T12:20:35.574Z,100987.34
2023-06-04T12:23:02.342Z,100985.69
2023-06-04T12:25:31.081Z,100974.44
2023-06-04T12:27:57.955Z,100973.53
2023-06-04T12:30:36.656Z,100983.19
2023-06-04T12:33:03.631Z,100971.84
2023-06-04T12:35:30.428Z,100976.91
2023-06-04T12:37:57.280Z,100980.22
2023-06-04T12:40:23.789Z,100978.13
2023-06-04T12:42:53.311Z,100985.72
2023-06-04T12:45:19.975Z,100976.44
2023-06-04T12:47:48.466Z,100980.16
2023-06-04T12:50:16.267Z,100974.06
2023-06-04T12:52:43.110Z,100972.34
2023-06-04T12:55:10.331Z,100973.06
2023-06-04T12:57:37.195Z,100978.47
2023-06-04T13:00:05.706Z,100976.28
2023-06-04T13:02:32.842Z,100966.78
2023-06-04T13:04:59.806Z,100972.25
2023-06-04T13:07:28.305Z,100963.34
2023-06-04T13:09:55.186Z,100971.63
2023-06-04T13:12:21.945Z,100970.31
2023-06-04T13:14:48.605Z,100972.25
2023-06-04T13:17:22.405Z,100968.09
2023-06-04T13:19:50.566Z,100968.13
2023-06-04T13:22:17.209Z,100964.91
2023-06-04T13:24:43.892Z,100964.56
2023-06-04T13:27:10.657Z,100958.22
2023-06-04T13:29:37.452Z,100962.63
2023-06-04T13:32:04.887Z,100966.72
2023-06-04T13:34:33.171Z,100959.78
2023-06-04T13:37:00.111Z,100962.09
2023-06-04T13:39:27.109Z,100964.28
2023-06-04T13:41:53.656Z,100947.56
2023-06-04T13:44:21.384Z,100941.97
2023-06-04T13:46:47.926Z,100940.75
2023-06-04T13:49:14.436Z,100952.63
2023-06-04T13:51:41.613Z,100952.13
2023-06-04T13:54:09.738Z,100955.19
2023-06-04T13:56:37.549Z,100947.56
2023-06-04T13:59:04.140Z,100936.47
2023-06-04T14:01:30.961Z,100947.25
2023-06-04T14:03:59.630Z,100938.66
2023-06-04T14:06:26.915Z,100944.63
2023-06-04T14:08:53.676Z,100928.94
2023-06-04T14:11:20.472Z,100924.53
2023-06-04T14:13:47.324Z,100919.94
2023-06-04T14:16:14.847Z,100923.22
2023-06-04T14:18:41.523Z,100928.75
2023-06-04T14:21:08.714Z,100930.34
2023-06-04T14:23:36.333Z,100924.00
2023-06-04T14:26:03.949Z,100924.47
2023-06-04T14:28:31.336Z,100919.59
2023-06-04T14:30:59.553Z,100915.31
2023-06-04T14:33:26.373Z,100917.84
2023-06-04T14:35:53.112Z,100920.88
2023-06-04T14:38:20.098Z,100914.00
2023-06-04T14:40:46.685Z,100911.31
2023-06-04T14:43:14.009Z,100911.19
2023-06-04T14:45:41.569Z,100910.50
2023-06-04T14:48:15.309Z,100907.81
2023-06-04T14:50:44.085Z,100889.81
2023-06-04T14:53:12.672Z,100898.63
2023-06-04T14:55:39.888Z,100899.38
2023-06-04T14:58:06.770Z,100895.13
2023-06-04T15:00:34.012Z,100888.41
2023-06-04T15:03:03.146Z,100882.78
2023-06-04T15:05:30.148Z,100884.69
2023-06-04T15:07:56.498Z,100875.88
2023-06-04T15:10:23.004Z,100882.66
2023-06-04T15:12:49.945Z,100883.13
2023-06-04T15:15:16.585Z,100876.47
2023-06-04T15:17:45.502Z,100878.44
2023-06-04T15:20:13.698Z,100874.28
2023-06-04T15:22:41.067Z,100877.31
2023-06-04T15:25:07.928Z,100877.03
2023-06-04T15:27:35.434Z,100866.81
2023-06-04T15:30:02.681Z,100878.84
2023-06-04T15:32:30.222Z,100872.06
2023-06-04T15:34:58.849Z,100863.47
2023-06-04T15:37:25.339Z,100871.09
2023-06-04T15:39:51.829Z,100871.13
2023-06-04T15:42:18.303Z,100870.63
2023-06-04T15:44:45.411Z,100866.19
2023-06-04T15:47:11.821Z,100862.19
2023-06-04T15:49:38.860Z,100854.25
2023-06-04T15:52:05.546Z,100859.38
2023-06-04T15:54:45.280Z,100861.88
2023-06-04T15:57:13.862Z,100863.78
2023-06-04T15:59:42.651Z,100863.56
2023-06-04T16:02:12.234Z,100863.75
2023-06-04T16:04:39.186Z,100860.63
2023-06-04T16:07:06.222Z,100858.22
2023-06-04T16:09:32.969Z,100853.63
2023-06-04T16:12:00.386Z,100848.38
2023-06-04T16:14:27.225Z,100845.97
2023-06-04T16:16:54.454Z,100846.25
2023-06-04T16:19:21.038Z,100839.09
2023-06-04T16:21:47.550Z,100841.66
2023-06-04T16:24:14.237Z,100835.19
2023-06-04T16:26:40.895Z,100831.03
2023-06-04T16:29:07.805Z,100830.72
2023-06-04T16:31:34.339Z,100824.34
2023-06-04T16:34:01.417Z,100840.50
2023-06-04T16:36:28.354Z,100826.47
2023-06-04T16:38:55.157Z,100827.09
2023-06-04T16:41:22.841Z,100831.03
2023-06-04T16:43:49.609Z,100825.66
2023-06-04T16:46:16.683Z,100830.91
2023-06-04T16:48:43.805Z,100839.19
2023-06-04T16:51:11.716Z,100834.78
2023-06-04T16:53:38.445Z,100823.56
2023-06-04T16:56:05.715Z,100821.47
2023-06-04T16:58:35.569Z,100825.03
2023-06-04T17:01:03.533Z,100824.72
2023-06-04T17:03:30.357Z,100826.81
2023-06-04T17:05:56.813Z,100826.84
2023-06-04T17:08:23.667Z,100827.47
2023-06-04T17:10:50.749Z,100821.16
2023-06-04T17:13:18.128Z,100813.13
2023-06-04T17:15:44.908Z,100821.84
2023-06-04T17:18:12.479Z,100819.72
2023-06-04T17:20:39.636Z,100819.94
2023-06-04T17:23:25.006Z,100816.75
2023-06-04T17:25:52.876Z,100816.28
2023-06-04T17:28:19.843Z,100820.38
2023-06-04T17:30:46.803Z,100812.47
2023-06-04T17:33:14.279Z,100821.69
2023-06-04T17:35:40.954Z,100820.09
2023-06-04T17:38:07.766Z,100816.78
2023-06-04T17:40:34.704Z,100817.50
2023-06-04T17:43:02.014Z,100812.81
2023-06-04T17:45:28.733Z,100811.84
2023-06-04T17:47:56.805Z,100812.66
2023-06-04T17:50:23.638Z,100811.50
2023-06-04T17:52:50.868Z,100810.97
2023-06-04T17:55:18.124Z,100817.38
2023-06-04T17:57:44.545Z,100824.44
2023-06-04T18:00:11.779Z,100821.84
2023-06-04T18:02:38.714Z,100825.66
2023-06-04T18:05:05.891Z,100829.06
2023-06-04T18:07:32.616Z,100827.09
2023-06-04T18:09:59.730Z,100831.09
2023-06-04T18:12:26.279Z,100827.53
2023-06-04T18:14:52.654Z,100827.66
2023-06-04T18:17:19.204Z,100822.97
2023-06-04T18:19:46.033Z,100824.38
2023-06-04T18:22:12.539Z,100825.25
2023-06-04T18:24:39.172Z,100829.38
2023-06-04T18:27:06.720Z,100830.28
2023-06-04T18:29:34.313Z,100831.47
2023-06-04T18:32:01.604Z,100826.03
2023-06-04T18:34:29.435Z,100833.69
2023-06-04T18:36:57.642Z,100838.44
2023-06-04T18:39:25.437Z,100842.06
2023-06-04T18:41:55.209Z,100844.22
2023-06-04T18:44:22.436Z,100839.53
2023-06-04T18:46:50.087Z,100844.25
2023-06-04T18:49:18.037Z,100842.00
2023-06-04T18:51:44.455Z,100841.81
2023-06-04T18:54:11.145Z,100836.66
2023-06-04T18:56:37.726Z,100853.97
2023-06-04T18:59:04.382Z,100845.94
2023-06-04T19:01:31.680Z,100846.41
2023-06-04T19:03:58.228Z,100844.22
2023-06-04T19:06:25.393Z,100852.00
2023-06-04T19:08:51.985Z,100860.41
2023-06-04T19:11:18.766Z,100861.22
2023-06-04T19:13:45.226Z,100860.34
2023-06-04T19:16:14.865Z,100861.84
2023-06-04T19:18:41.916Z,100860.91
2023-06-04T19:21:08.614Z,100870.41
2023-06-04T19:23:35.594Z,100875.50
2023-06-04T19:26:02.709Z,100872.03
2023-06-04T19:28:29.182Z,100871.00
2023-06-04T19:30:56.056Z,100879.38
2023-06-04T19:33:22.986Z,100890.75
2023-06-04T19:35:49.794Z,100883.53
2023-06-04T19:38:16.484Z,100884.72
2023-06-04T19:40:43.400Z,100897.16
2023-06-04T19:43:10.847Z,100894.03
2023-06-04T19:45:38.107Z,100891.81
2023-06-04T19:48:04.896Z,100900.22
2023-06-04T19:50:31.723Z,100896.88
2023-06-04T19:52:58.943Z,100903.59
2023-06-04T19:55:25.429Z,100898.81
2023-06-04T19:57:53.378Z,100896.84
2023-06-04T20:00:19.838Z,100907.56
2023-06-04T20:02:46.989Z,100910.38
2023-06-04T20:05:16.641Z,100917.38
2023-06-04T20:07:44.230Z,100932.78
2023-06-04T20:10:11.360Z,100914.38
2023-06-04T20:12:38.473Z,100934.22
2023-06-04T20:15:05.825Z,100933.84
2023-06-04T20:17:32.348Z,100928.66
2023-06-04T20:19:59.228Z,100939.16
2023-06-04T20:22:26.136Z,100936.47
2023-06-04T20:24:52.910Z,100936.28
2023-06-04T20:27:19.727Z,100950.00
2023-06-04T20:29:46.989Z,100943.19
2023-06-04T20:32:13.372Z,100957.31
2023-06-04T20:34:40.601Z,100963.34
2023-06-04T20:37:07.336Z,100963.38
2023-06-04T20:39:38.333Z,100967.84
2023-06-04T20:42:05.863Z,100969.88
2023-06-04T20:44:33.162Z,100966.25
2023-06-04T20:46:59.927Z,100964.69
2023-06-04T20:49:26.627Z,100977.94
2023-06-04T20:51:53.894Z,100975.13
2023-06-04T20:54:20.507Z,100978.78
2023-06-04T20:56:48.167Z,100972.34
2023-06-04T20:59:15.928Z,100976.34
2023-06-04T21:01:42.665Z,100976.38
2023-06-04T21:04:11.593Z,100978.00
2023-06-04T21:06:38.627Z,100986.03
2023-06-04T21:09:07.452Z,100988.06
2023-06-04T21:11:34.164Z,100998.09
2023-06-04T21:14:00.647Z,100987.59
2023-06-04T21:16:27.301Z,100991.59
2023-06-04T21:18:54.278Z,100994.81
2023-06-04T21:21:21.527Z,100999.63
2023-06-04T21:23:48.523Z,100998.84
2023-06-04T21:26:15.511Z,100991.19
2023-06-04T21:28:42.114Z,101006.84
2023-06-04T21:31:09.449Z,101004.84
2023-06-04T21:33:36.428Z,101004.38
2023-06-04T21:36:03.787Z,100997.97
2023-06-04T21:38:30.337Z,100997.19
2023-06-04T21:40:57.216Z,101003.56
2023-06-04T21:43:24.365Z,101004.78
2023-06-04T21:45:51.564Z,101007.56
2023-06-04T21:48:18.960Z,101001.94
2023-06-04T21:50:45.864Z,101002.28
2023-06-04T21:53:14.482Z,100999.06
2023-06-04T21:55:41.580Z,101002.69
2023-06-04T21:58:09.120Z,100999.03
2023-06-04T22:00:35.837Z,100999.78
2023-06-04T22:03:02.787Z,101009.00
2023-06-04T22:05:30.018Z,101001.00
2023-06-04T22:07:56.830Z,101000.50
2023-06-04T22:10:23.728Z,101002.44
2023-06-04T22:12:50.657Z,101003.28
2023-06-04T22:15:17.247Z,101002.00
2023-06-04T22:17:43.946Z,101004.31
2023-06-04T22:20:10.896Z,101003.03
2023-06-04T22:22:37.996Z,101003.06
2023-06-04T22:25:04.766Z,100998.97
2023-06-04T22:27:31.502Z,101002.22
2023-06-04T22:29:58.384Z,100997.78
2023-06-04T22:32:24.847Z,101000.56
2023-06-04T22:34:51.319Z,100998.88
2023-06-04T22:37:17.809Z,101003.56
2023-06-04T22:39:45.374Z,100994.66
2023-06-04T22:42:12.480Z,101000.63
2023-06-04T22:44:39.895Z,100997.84
2023-06-04T22:47:06.636Z,100989.06
2023-06-04T22:49:33.196Z,100993.94
2023-06-04T22:52:00.161Z,100989.97
2023-06-04T22:54:27.190Z,100991.09
2023-06-04T22:56:53.694Z,100990.78
2023-06-04T22:59:20.306Z,100998.28
2023-06-04T23:01:47.090Z,100992.22
2023-06-04T23:04:13.760Z,101003.00
2023-06-04T23:06:40.221Z,100997.91
2023-06-04T23:09:06.900Z,100995.81
2023-06-04T23:11:34.147Z,101004.94
2023-06-04T23:14:00.879Z,101002.84
2023-06-04T23:16:27.370Z,101007.66
2023-06-04T23:18:54.963Z,101008.38
2023-06-04T23:21:21.658Z,101011.22
2023-06-04T23:23:48.943Z,101004.41
2023-06-04T23:26:16.202Z,100999.59
2023-06-04T23:28:42.888Z,101012.06
2023-06-04T23:31:09.539Z,101006.50
2023-06-04T23:33:36.519Z,101012.59
2023-06-04T23:36:03.153Z,101008.66
2023-06-04T23:38:29.700Z,101012.34
2023-06-04T23:40:56.136Z,101011.13
2023-06-04T23:43:22.883Z,101003.81
2023-06-04T23:45:50.927Z,101006.94
2023-06-04T23:48:18.099Z,101018.47
2023-06-04T23:50:44.682Z,101013.47
2023-06-04T23:53:11.261Z,101019.03
2023-06-04T23:55:39.704Z,101008.69
2023-06-04T23:58:06.818Z,101009.63
